sensor_id;sensor_type;location;lat;lon;timestamp;P1;durP1;ratioP1;P2;durP2;ratioP2
19301;SDS011;9785;59.362;12.152;2024-03-06T00:01:12;5.27;;;2.57;;
19301;SDS011;9785;59.362;12.152;2024-03-06T00:03:41;3.77;;;2.63;;
19301;SDS011;9785;59.362;12.152;2024-03-06T00:06:09;2.97;;;2.37;;
19301;SDS011;9785;59.362;12.152;2024-03-06T00:08:38;4.27;;;2.23;;
19301;SDS011;9785;59.362;12.152;2024-03-06T00:11:06;4.50;;;2.33;;
19301;SDS011;9785;59.362;12.152;2024-03-06T00:13:36;3.70;;;2.33;;
19301;SDS011;9785;59.362;12.152;2024-03-06T00:16:05;2.90;;;2.20;;
19301;SDS011;9785;59.362;12.152;2024-03-06T00:18:35;5.63;;;2.77;;
19301;SDS011;9785;59.362;12.152;2024-03-06T00:21:04;3.40;;;2.40;;
19301;SDS011;9785;59.362;12.152;2024-03-06T00:23:33;3.07;;;2.20;;
19301;SDS011;9785;59.362;12.152;2024-03-06T00:26:02;4.37;;;2.90;;
19301;SDS011;9785;59.362;12.152;2024-03-06T00:28:30;3.90;;;2.53;;
19301;SDS011;9785;59.362;12.152;2024-03-06T00:30:59;4.33;;;2.47;;
19301;SDS011;9785;59.362;12.152;2024-03-06T00:33:27;3.37;;;2.23;;
19301;SDS011;9785;59.362;12.152;2024-03-06T00:35:57;3.17;;;1.93;;
19301;SDS011;9785;59.362;12.152;2024-03-06T00:38:26;3.10;;;2.27;;
19301;SDS011;9785;59.362;12.152;2024-03-06T00:40:54;2.33;;;1.80;;
19301;SDS011;9785;59.362;12.152;2024-03-06T00:43:24;2.27;;;2.07;;
19301;SDS011;9785;59.362;12.152;2024-03-06T00:45:52;4.90;;;2.63;;
19301;SDS011;9785;59.362;12.152;2024-03-06T00:48:21;2.20;;;1.97;;
19301;SDS011;9785;59.362;12.152;2024-03-06T00:50:49;2.80;;;2.10;;
19301;SDS011;9785;59.362;12.152;2024-03-06T00:53:19;2.93;;;1.93;;
19301;SDS011;9785;59.362;12.152;2024-03-06T00:55:48;3.03;;;2.23;;
19301;SDS011;9785;59.362;12.152;2024-03-06T00:58:17;3.33;;;2.07;;
19301;SDS011;9785;59.362;12.152;2024-03-06T01:00:45;3.07;;;2.23;;
19301;SDS011;9785;59.362;12.152;2024-03-06T01:03:14;3.20;;;1.90;;
19301;SDS011;9785;59.362;12.152;2024-03-06T01:05:42;1.90;;;1.80;;
19301;SDS011;9785;59.362;12.152;2024-03-06T01:08:11;1.90;;;1.70;;
19301;SDS011;9785;59.362;12.152;2024-03-06T01:10:41;1.90;;;1.77;;
19301;SDS011;9785;59.362;12.152;2024-03-06T01:13:10;2.43;;;2.20;;
19301;SDS011;9785;59.362;12.152;2024-03-06T01:15:39;4.37;;;2.10;;
19301;SDS011;9785;59.362;12.152;2024-03-06T01:18:07;3.53;;;1.77;;
19301;SDS011;9785;59.362;12.152;2024-03-06T01:20:36;3.57;;;1.90;;
19301;SDS011;9785;59.362;12.152;2024-03-06T01:23:05;1.80;;;1.70;;
19301;SDS011;9785;59.362;12.152;2024-03-06T01:25:34;2.67;;;2.10;;
19301;SDS011;9785;59.362;12.152;2024-03-06T01:28:04;2.60;;;1.80;;
19301;SDS011;9785;59.362;12.152;2024-03-06T01:30:33;3.43;;;2.00;;
19301;SDS011;9785;59.362;12.152;2024-03-06T01:33:02;1.87;;;1.77;;
19301;SDS011;9785;59.362;12.152;2024-03-06T01:35:31;2.07;;;1.90;;
19301;SDS011;9785;59.362;12.152;2024-03-06T01:38:00;2.53;;;2.00;;
19301;SDS011;9785;59.362;12.152;2024-03-06T01:40:29;3.03;;;2.00;;
19301;SDS011;9785;59.362;12.152;2024-03-06T01:42:57;3.40;;;2.00;;
19301;SDS011;9785;59.362;12.152;2024-03-06T01:45:29;5.77;;;2.10;;
19301;SDS011;9785;59.362;12.152;2024-03-06T01:47:57;4.50;;;2.17;;
19301;SDS011;9785;59.362;12.152;2024-03-06T01:50:26;5.57;;;2.07;;
19301;SDS011;9785;59.362;12.152;2024-03-06T01:52:55;3.07;;;2.47;;
19301;SDS011;9785;59.362;12.152;2024-03-06T01:55:24;3.17;;;2.17;;
19301;SDS011;9785;59.362;12.152;2024-03-06T01:57:53;2.43;;;2.00;;
19301;SDS011;9785;59.362;12.152;2024-03-06T02:00:21;2.93;;;1.97;;
19301;SDS011;9785;59.362;12.152;2024-03-06T02:02:51;2.67;;;2.00;;
19301;SDS011;9785;59.362;12.152;2024-03-06T02:05:20;3.63;;;2.10;;
19301;SDS011;9785;59.362;12.152;2024-03-06T02:07:49;2.90;;;2.03;;
19301;SDS011;9785;59.362;12.152;2024-03-06T02:10:19;2.70;;;2.03;;
19301;SDS011;9785;59.362;12.152;2024-03-06T02:12:48;4.93;;;1.90;;
19301;SDS011;9785;59.362;12.152;2024-03-06T02:15:17;2.30;;;1.97;;
19301;SDS011;9785;59.362;12.152;2024-03-06T02:17:45;2.50;;;1.87;;
19301;SDS011;9785;59.362;12.152;2024-03-06T02:20:15;3.30;;;1.93;;
19301;SDS011;9785;59.362;12.152;2024-03-06T02:22:45;4.67;;;2.10;;
19301;SDS011;9785;59.362;12.152;2024-03-06T02:25:14;2.50;;;2.20;;
19301;SDS011;9785;59.362;12.152;2024-03-06T02:27:43;2.97;;;1.70;;
19301;SDS011;9785;59.362;12.152;2024-03-06T02:30:12;1.77;;;1.67;;
19301;SDS011;9785;59.362;12.152;2024-03-06T02:32:41;2.17;;;2.00;;
19301;SDS011;9785;59.362;12.152;2024-03-06T02:35:10;1.90;;;1.73;;
19301;SDS011;9785;59.362;12.152;2024-03-06T02:37:41;2.17;;;2.00;;
19301;SDS011;9785;59.362;12.152;2024-03-06T02:40:11;2.20;;;2.00;;
19301;SDS011;9785;59.362;12.152;2024-03-06T02:42:40;3.67;;;1.90;;
19301;SDS011;9785;59.362;12.152;2024-03-06T02:45:09;1.97;;;1.63;;
19301;SDS011;9785;59.362;12.152;2024-03-06T02:47:38;2.37;;;1.70;;
19301;SDS011;9785;59.362;12.152;2024-03-06T02:50:07;3.40;;;1.70;;
19301;SDS011;9785;59.362;12.152;2024-03-06T02:52:35;2.50;;;2.10;;
19301;SDS011;9785;59.362;12.152;2024-03-06T02:55:04;3.50;;;2.20;;
19301;SDS011;9785;59.362;12.152;2024-03-06T02:57:34;4.37;;;1.70;;
19301;SDS011;9785;59.362;12.152;2024-03-06T03:00:03;2.23;;;1.90;;
19301;SDS011;9785;59.362;12.152;2024-03-06T03:02:35;3.40;;;2.00;;
19301;SDS011;9785;59.362;12.152;2024-03-06T03:05:04;2.60;;;2.10;;
19301;SDS011;9785;59.362;12.152;2024-03-06T03:07:33;3.47;;;1.73;;
19301;SDS011;9785;59.362;12.152;2024-03-06T03:10:01;4.90;;;2.10;;
19301;SDS011;9785;59.362;12.152;2024-03-06T03:12:31;2.07;;;1.87;;
19301;SDS011;9785;59.362;12.152;2024-03-06T03:15:01;5.53;;;2.40;;
19301;SDS011;9785;59.362;12.152;2024-03-06T03:17:30;3.67;;;2.10;;
19301;SDS011;9785;59.362;12.152;2024-03-06T03:19:59;1.97;;;1.73;;
19301;SDS011;9785;59.362;12.152;2024-03-06T03:22:29;3.27;;;2.17;;
19301;SDS011;9785;59.362;12.152;2024-03-06T03:24:59;3.30;;;2.10;;
19301;SDS011;9785;59.362;12.152;2024-03-06T03:27:27;2.33;;;2.17;;
19301;SDS011;9785;59.362;12.152;2024-03-06T03:29:56;2.90;;;2.13;;
19301;SDS011;9785;59.362;12.152;2024-03-06T03:32:26;3.43;;;2.10;;
19301;SDS011;9785;59.362;12.152;2024-03-06T03:34:54;2.37;;;2.13;;
19301;SDS011;9785;59.362;12.152;2024-03-06T03:37:23;2.60;;;2.20;;
19301;SDS011;9785;59.362;12.152;2024-03-06T03:39:51;3.70;;;2.20;;
19301;SDS011;9785;59.362;12.152;2024-03-06T03:42:21;3.27;;;2.20;;
19301;SDS011;9785;59.362;12.152;2024-03-06T03:44:49;2.83;;;2.50;;
19301;SDS011;9785;59.362;12.152;2024-03-06T03:47:18;3.83;;;2.17;;
19301;SDS011;9785;59.362;12.152;2024-03-06T03:49:48;3.97;;;1.87;;
19301;SDS011;9785;59.362;12.152;2024-03-06T03:52:32;2.97;;;2.30;;
19301;SDS011;9785;59.362;12.152;2024-03-06T03:55:00;3.27;;;2.13;;
19301;SDS011;9785;59.362;12.152;2024-03-06T03:57:30;2.97;;;2.20;;
19301;SDS011;9785;59.362;12.152;2024-03-06T03:59:58;2.77;;;1.97;;
19301;SDS011;9785;59.362;12.152;2024-03-06T04:02:27;2.40;;;2.03;;
19301;SDS011;9785;59.362;12.152;2024-03-06T04:04:57;3.23;;;2.03;;
19301;SDS011;9785;59.362;12.152;2024-03-06T04:07:26;1.90;;;1.70;;
19301;SDS011;9785;59.362;12.152;2024-03-06T04:09:54;3.00;;;2.30;;
19301;SDS011;9785;59.362;12.152;2024-03-06T04:12:24;2.20;;;2.00;;
19301;SDS011;9785;59.362;12.152;2024-03-06T04:14:53;2.23;;;2.03;;
19301;SDS011;9785;59.362;12.152;2024-03-06T04:17:21;4.20;;;2.30;;
19301;SDS011;9785;59.362;12.152;2024-03-06T04:19:51;2.47;;;2.07;;
19301;SDS011;9785;59.362;12.152;2024-03-06T04:22:21;2.87;;;2.13;;
19301;SDS011;9785;59.362;12.152;2024-03-06T04:24:49;3.20;;;2.50;;
19301;SDS011;9785;59.362;12.152;2024-03-06T04:27:18;2.23;;;2.03;;
19301;SDS011;9785;59.362;12.152;2024-03-06T04:29:46;3.40;;;2.47;;
19301;SDS011;9785;59.362;12.152;2024-03-06T04:32:15;2.20;;;2.00;;
19301;SDS011;9785;59.362;12.152;2024-03-06T04:34:44;2.93;;;2.23;;
19301;SDS011;9785;59.362;12.152;2024-03-06T04:37:13;4.93;;;2.27;;
19301;SDS011;9785;59.362;12.152;2024-03-06T04:39:42;2.67;;;1.83;;
19301;SDS011;9785;59.362;12.152;2024-03-06T04:42:11;2.97;;;2.13;;
19301;SDS011;9785;59.362;12.152;2024-03-06T04:44:39;3.07;;;1.90;;
19301;SDS011;9785;59.362;12.152;2024-03-06T04:47:09;2.07;;;1.87;;
19301;SDS011;9785;59.362;12.152;2024-03-06T04:49:38;2.00;;;1.80;;
19301;SDS011;9785;59.362;12.152;2024-03-06T04:52:06;3.30;;;2.00;;
19301;SDS011;9785;59.362;12.152;2024-03-06T04:54:35;3.50;;;2.07;;
19301;SDS011;9785;59.362;12.152;2024-03-06T04:57:05;2.63;;;2.00;;
19301;SDS011;9785;59.362;12.152;2024-03-06T04:59:34;1.73;;;1.63;;
19301;SDS011;9785;59.362;12.152;2024-03-06T05:02:02;3.13;;;1.90;;
19301;SDS011;9785;59.362;12.152;2024-03-06T05:04:31;4.47;;;2.00;;
19301;SDS011;9785;59.362;12.152;2024-03-06T05:07:17;2.97;;;1.80;;
19301;SDS011;9785;59.362;12.152;2024-03-06T05:10:02;2.10;;;1.90;;
19301;SDS011;9785;59.362;12.152;2024-03-06T05:12:52;2.40;;;1.63;;
19301;SDS011;9785;59.362;12.152;2024-03-06T05:15:38;4.30;;;2.20;;
19301;SDS011;9785;59.362;12.152;2024-03-06T05:18:25;1.83;;;1.73;;
19301;SDS011;9785;59.362;12.152;2024-03-06T05:21:11;2.13;;;1.77;;
19301;SDS011;9785;59.362;12.152;2024-03-06T05:23:57;2.20;;;1.83;;
19301;SDS011;9785;59.362;12.152;2024-03-06T05:26:43;4.97;;;1.80;;
19301;SDS011;9785;59.362;12.152;2024-03-06T05:29:30;1.87;;;1.77;;
19301;SDS011;9785;59.362;12.152;2024-03-06T05:32:16;3.43;;;1.80;;
19301;SDS011;9785;59.362;12.152;2024-03-06T05:35:02;2.33;;;1.90;;
19301;SDS011;9785;59.362;12.152;2024-03-06T05:37:48;1.90;;;1.80;;
19301;SDS011;9785;59.362;12.152;2024-03-06T05:40:34;2.40;;;2.00;;
19301;SDS011;9785;59.362;12.152;2024-03-06T05:43:23;1.60;;;1.50;;
19301;SDS011;9785;59.362;12.152;2024-03-06T05:46:10;3.33;;;1.87;;
19301;SDS011;9785;59.362;12.152;2024-03-06T05:48:56;2.93;;;2.00;;
19301;SDS011;9785;59.362;12.152;2024-03-06T05:51:42;2.10;;;1.87;;
19301;SDS011;9785;59.362;12.152;2024-03-06T05:54:29;6.17;;;2.00;;
19301;SDS011;9785;59.362;12.152;2024-03-06T05:57:17;3.43;;;2.23;;
19301;SDS011;9785;59.362;12.152;2024-03-06T06:00:03;1.93;;;1.53;;
19301;SDS011;9785;59.362;12.152;2024-03-06T06:02:38;3.50;;;1.90;;
19301;SDS011;9785;59.362;12.152;2024-03-06T06:05:07;2.07;;;1.97;;
19301;SDS011;9785;59.362;12.152;2024-03-06T06:07:49;2.53;;;1.90;;
19301;SDS011;9785;59.362;12.152;2024-03-06T06:10:18;1.87;;;1.70;;
19301;SDS011;9785;59.362;12.152;2024-03-06T06:12:48;2.67;;;1.60;;
19301;SDS011;9785;59.362;12.152;2024-03-06T06:15:16;1.80;;;1.70;;
19301;SDS011;9785;59.362;12.152;2024-03-06T06:17:46;1.73;;;1.63;;
19301;SDS011;9785;59.362;12.152;2024-03-06T06:20:15;4.30;;;1.70;;
19301;SDS011;9785;59.362;12.152;2024-03-06T06:22:45;1.40;;;1.30;;
19301;SDS011;9785;59.362;12.152;2024-03-06T06:25:13;3.10;;;1.47;;
19301;SDS011;9785;59.362;12.152;2024-03-06T06:27:42;2.23;;;1.63;;
19301;SDS011;9785;59.362;12.152;2024-03-06T06:30:11;2.73;;;1.70;;
19301;SDS011;9785;59.362;12.152;2024-03-06T06:32:40;1.60;;;1.50;;
19301;SDS011;9785;59.362;12.152;2024-03-06T06:35:11;1.80;;;1.70;;
19301;SDS011;9785;59.362;12.152;2024-03-06T06:37:40;3.67;;;1.80;;
19301;SDS011;9785;59.362;12.152;2024-03-06T06:40:10;3.07;;;1.73;;
19301;SDS011;9785;59.362;12.152;2024-03-06T06:42:43;1.67;;;1.50;;
19301;SDS011;9785;59.362;12.152;2024-03-06T06:45:16;1.60;;;1.50;;
19301;SDS011;9785;59.362;12.152;2024-03-06T06:47:45;1.60;;;1.50;;
19301;SDS011;9785;59.362;12.152;2024-03-06T06:50:15;2.53;;;1.43;;
19301;SDS011;9785;59.362;12.152;2024-03-06T06:52:45;1.70;;;1.60;;
19301;SDS011;9785;59.362;12.152;2024-03-06T06:55:13;2.73;;;1.80;;
19301;SDS011;9785;59.362;12.152;2024-03-06T06:57:42;2.40;;;1.77;;
19301;SDS011;9785;59.362;12.152;2024-03-06T07:00:12;2.17;;;1.60;;
19301;SDS011;9785;59.362;12.152;2024-03-06T07:02:43;2.60;;;1.73;;
19301;SDS011;9785;59.362;12.152;2024-03-06T07:05:11;4.87;;;2.40;;
19301;SDS011;9785;59.362;12.152;2024-03-06T07:07:41;2.93;;;1.73;;
19301;SDS011;9785;59.362;12.152;2024-03-06T07:10:10;2.10;;;1.90;;
19301;SDS011;9785;59.362;12.152;2024-03-06T07:12:39;9.13;;;3.50;;
19301;SDS011;9785;59.362;12.152;2024-03-06T07:15:07;1.87;;;1.77;;
19301;SDS011;9785;59.362;12.152;2024-03-06T07:17:36;2.37;;;1.90;;
19301;SDS011;9785;59.362;12.152;2024-03-06T07:20:05;1.50;;;1.40;;
19301;SDS011;9785;59.362;12.152;2024-03-06T07:22:35;1.80;;;1.70;;
19301;SDS011;9785;59.362;12.152;2024-03-06T07:25:05;1.70;;;1.60;;
19301;SDS011;9785;59.362;12.152;2024-03-06T07:27:34;3.17;;;1.70;;
19301;SDS011;9785;59.362;12.152;2024-03-06T07:30:03;1.33;;;1.33;;
19301;SDS011;9785;59.362;12.152;2024-03-06T07:32:32;2.53;;;1.60;;
19301;SDS011;9785;59.362;12.152;2024-03-06T07:35:00;1.77;;;1.40;;
19301;SDS011;9785;59.362;12.152;2024-03-06T07:37:29;1.80;;;1.70;;
19301;SDS011;9785;59.362;12.152;2024-03-06T07:39:57;2.17;;;1.70;;
19301;SDS011;9785;59.362;12.152;2024-03-06T07:42:27;2.33;;;1.50;;
19301;SDS011;9785;59.362;12.152;2024-03-06T07:44:56;1.60;;;1.50;;
19301;SDS011;9785;59.362;12.152;2024-03-06T07:47:25;1.50;;;1.40;;
19301;SDS011;9785;59.362;12.152;2024-03-06T07:49:53;1.60;;;1.50;;
19301;SDS011;9785;59.362;12.152;2024-03-06T07:52:22;1.50;;;1.40;;
19301;SDS011;9785;59.362;12.152;2024-03-06T07:54:51;2.47;;;1.37;;
19301;SDS011;9785;59.362;12.152;2024-03-06T07:57:19;2.07;;;1.70;;
19301;SDS011;9785;59.362;12.152;2024-03-06T07:59:49;1.40;;;1.30;;
19301;SDS011;9785;59.362;12.152;2024-03-06T08:02:21;1.60;;;1.50;;
19301;SDS011;9785;59.362;12.152;2024-03-06T08:04:49;1.50;;;1.40;;
19301;SDS011;9785;59.362;12.152;2024-03-06T08:07:18;2.03;;;1.50;;
19301;SDS011;9785;59.362;12.152;2024-03-06T08:09:46;2.97;;;1.63;;
19301;SDS011;9785;59.362;12.152;2024-03-06T08:12:15;3.00;;;1.60;;
19301;SDS011;9785;59.362;12.152;2024-03-06T08:14:44;1.60;;;1.50;;
19301;SDS011;9785;59.362;12.152;2024-03-06T08:17:13;1.50;;;1.40;;
19301;SDS011;9785;59.362;12.152;2024-03-06T08:19:42;1.60;;;1.50;;
19301;SDS011;9785;59.362;12.152;2024-03-06T08:22:11;1.53;;;1.43;;
19301;SDS011;9785;59.362;12.152;2024-03-06T08:24:39;1.30;;;1.30;;
19301;SDS011;9785;59.362;12.152;2024-03-06T08:27:08;1.43;;;1.33;;
19301;SDS011;9785;59.362;12.152;2024-03-06T08:29:36;1.70;;;1.60;;
19301;SDS011;9785;59.362;12.152;2024-03-06T08:32:05;1.83;;;1.40;;
19301;SDS011;9785;59.362;12.152;2024-03-06T08:34:35;2.43;;;1.37;;
19301;SDS011;9785;59.362;12.152;2024-03-06T08:37:04;2.50;;;1.67;;
19301;SDS011;9785;59.362;12.152;2024-03-06T08:39:32;2.03;;;1.60;;
19301;SDS011;9785;59.362;12.152;2024-03-06T08:42:01;1.50;;;1.40;;
19301;SDS011;9785;59.362;12.152;2024-03-06T08:44:30;1.60;;;1.50;;
19301;SDS011;9785;59.362;12.152;2024-03-06T08:46:58;2.00;;;1.43;;
19301;SDS011;9785;59.362;12.152;2024-03-06T08:49:27;3.07;;;1.37;;
19301;SDS011;9785;59.362;12.152;2024-03-06T08:51:57;1.60;;;1.50;;
19301;SDS011;9785;59.362;12.152;2024-03-06T08:54:26;1.40;;;1.30;;
19301;SDS011;9785;59.362;12.152;2024-03-06T08:56:55;2.13;;;1.63;;
19301;SDS011;9785;59.362;12.152;2024-03-06T08:59:25;1.57;;;1.47;;
19301;SDS011;9785;59.362;12.152;2024-03-06T09:01:54;1.60;;;1.50;;
19301;SDS011;9785;59.362;12.152;2024-03-06T09:04:24;1.33;;;1.23;;
19301;SDS011;9785;59.362;12.152;2024-03-06T09:06:52;5.50;;;2.33;;
19301;SDS011;9785;59.362;12.152;2024-03-06T09:09:22;2.00;;;1.83;;
19301;SDS011;9785;59.362;12.152;2024-03-06T09:11:51;3.67;;;1.50;;
19301;SDS011;9785;59.362;12.152;2024-03-06T09:14:19;1.40;;;1.30;;
19301;SDS011;9785;59.362;12.152;2024-03-06T09:16:50;1.63;;;1.53;;
19301;SDS011;9785;59.362;12.152;2024-03-06T09:19:19;1.50;;;1.40;;
19301;SDS011;9785;59.362;12.152;2024-03-06T09:21:48;1.30;;;1.30;;
19301;SDS011;9785;59.362;12.152;2024-03-06T09:24:17;1.30;;;1.20;;
19301;SDS011;9785;59.362;12.152;2024-03-06T09:26:47;1.50;;;1.40;;
19301;SDS011;9785;59.362;12.152;2024-03-06T09:29:16;2.20;;;1.33;;
19301;SDS011;9785;59.362;12.152;2024-03-06T09:31:45;1.53;;;1.43;;
19301;SDS011;9785;59.362;12.152;2024-03-06T09:34:14;1.27;;;1.23;;
19301;SDS011;9785;59.362;12.152;2024-03-06T09:36:45;1.40;;;1.30;;
19301;SDS011;9785;59.362;12.152;2024-03-06T09:39:14;1.40;;;1.30;;
19301;SDS011;9785;59.362;12.152;2024-03-06T09:41:44;1.87;;;1.33;;
19301;SDS011;9785;59.362;12.152;2024-03-06T09:44:14;1.60;;;1.50;;
19301;SDS011;9785;59.362;12.152;2024-03-06T09:46:43;1.97;;;1.70;;
19301;SDS011;9785;59.362;12.152;2024-03-06T09:49:13;1.30;;;1.30;;
19301;SDS011;9785;59.362;12.152;2024-03-06T09:51:42;2.13;;;1.33;;
19301;SDS011;9785;59.362;12.152;2024-03-06T09:54:12;1.93;;;1.33;;
19301;SDS011;9785;59.362;12.152;2024-03-06T09:56:46;1.30;;;1.30;;
19301;SDS011;9785;59.362;12.152;2024-03-06T09:59:16;2.20;;;1.37;;
19301;SDS011;9785;59.362;12.152;2024-03-06T10:01:45;1.43;;;1.20;;
19301;SDS011;9785;59.362;12.152;2024-03-06T10:04:19;1.27;;;1.27;;
19301;SDS011;9785;59.362;12.152;2024-03-06T10:06:48;2.27;;;1.30;;
19301;SDS011;9785;59.362;12.152;2024-03-06T10:09:18;1.30;;;1.30;;
19301;SDS011;9785;59.362;12.152;2024-03-06T10:11:47;2.53;;;1.53;;
19301;SDS011;9785;59.362;12.152;2024-03-06T10:14:17;1.40;;;1.30;;
19301;SDS011;9785;59.362;12.152;2024-03-06T10:16:52;1.50;;;1.40;;
19301;SDS011;9785;59.362;12.152;2024-03-06T10:19:21;1.40;;;1.20;;
19301;SDS011;9785;59.362;12.152;2024-03-06T10:21:50;1.30;;;1.20;;
19301;SDS011;9785;59.362;12.152;2024-03-06T10:24:19;1.30;;;1.20;;
19301;SDS011;9785;59.362;12.152;2024-03-06T10:26:49;1.30;;;1.20;;
19301;SDS011;9785;59.362;12.152;2024-03-06T10:29:22;1.10;;;1.10;;
19301;SDS011;9785;59.362;12.152;2024-03-06T10:31:52;1.27;;;1.27;;
19301;SDS011;9785;59.362;12.152;2024-03-06T10:34:22;1.57;;;1.47;;
19301;SDS011;9785;59.362;12.152;2024-03-06T10:36:52;1.20;;;1.10;;
19301;SDS011;9785;59.362;12.152;2024-03-06T10:39:21;1.37;;;1.27;;
19301;SDS011;9785;59.362;12.152;2024-03-06T10:41:51;1.20;;;1.20;;
19301;SDS011;9785;59.362;12.152;2024-03-06T10:44:23;1.20;;;1.20;;
19301;SDS011;9785;59.362;12.152;2024-03-06T10:46:55;1.17;;;1.10;;
19301;SDS011;9785;59.362;12.152;2024-03-06T10:49:25;1.20;;;1.20;;
19301;SDS011;9785;59.362;12.152;2024-03-06T10:51:54;2.57;;;1.33;;
19301;SDS011;9785;59.362;12.152;2024-03-06T10:54:26;1.53;;;1.43;;
19301;SDS011;9785;59.362;12.152;2024-03-06T10:56:56;1.50;;;1.20;;
19301;SDS011;9785;59.362;12.152;2024-03-06T10:59:27;1.73;;;1.10;;
19301;SDS011;9785;59.362;12.152;2024-03-06T11:01:55;2.70;;;1.40;;
19301;SDS011;9785;59.362;12.152;2024-03-06T11:04:27;1.73;;;1.23;;
19301;SDS011;9785;59.362;12.152;2024-03-06T11:06:56;1.67;;;1.60;;
19301;SDS011;9785;59.362;12.152;2024-03-06T11:09:26;1.73;;;1.40;;
19301;SDS011;9785;59.362;12.152;2024-03-06T11:11:54;1.57;;;1.47;;
19301;SDS011;9785;59.362;12.152;2024-03-06T11:14:23;1.60;;;1.50;;
19301;SDS011;9785;59.362;12.152;2024-03-06T11:16:57;1.30;;;1.30;;
19301;SDS011;9785;59.362;12.152;2024-03-06T11:19:26;1.70;;;1.60;;
19301;SDS011;9785;59.362;12.152;2024-03-06T11:21:55;1.73;;;1.63;;
19301;SDS011;9785;59.362;12.152;2024-03-06T11:24:24;1.63;;;1.53;;
19301;SDS011;9785;59.362;12.152;2024-03-06T11:27:00;1.60;;;1.40;;
19301;SDS011;9785;59.362;12.152;2024-03-06T11:32:20;1.53;;;1.43;;
19301;SDS011;9785;59.362;12.152;2024-03-06T11:34:50;1.83;;;1.60;;
19301;SDS011;9785;59.362;12.152;2024-03-06T11:37:20;2.97;;;1.50;;
19301;SDS011;9785;59.362;12.152;2024-03-06T11:39:49;1.53;;;1.50;;
19301;SDS011;9785;59.362;12.152;2024-03-06T11:42:18;1.50;;;1.40;;
19301;SDS011;9785;59.362;12.152;2024-03-06T11:45:12;1.60;;;1.50;;
19301;SDS011;9785;59.362;12.152;2024-03-06T11:47:58;1.60;;;1.50;;
19301;SDS011;9785;59.362;12.152;2024-03-06T11:50:29;1.70;;;1.60;;
19301;SDS011;9785;59.362;12.152;2024-03-06T11:52:58;1.90;;;1.80;;
19301;SDS011;9785;59.362;12.152;2024-03-06T11:55:27;1.83;;;1.73;;
19301;SDS011;9785;59.362;12.152;2024-03-06T11:57:55;1.77;;;1.67;;
19301;SDS011;9785;59.362;12.152;2024-03-06T12:00:24;2.17;;;2.07;;
19301;SDS011;9785;59.362;12.152;2024-03-06T12:02:52;1.67;;;1.57;;
19301;SDS011;9785;59.362;12.152;2024-03-06T12:05:23;3.13;;;1.80;;
19301;SDS011;9785;59.362;12.152;2024-03-06T12:07:53;2.20;;;1.73;;
19301;SDS011;9785;59.362;12.152;2024-03-06T12:10:22;1.63;;;1.53;;
19301;SDS011;9785;59.362;12.152;2024-03-06T12:12:51;1.57;;;1.47;;
19301;SDS011;9785;59.362;12.152;2024-03-06T12:15:19;2.10;;;1.53;;
19301;SDS011;9785;59.362;12.152;2024-03-06T12:17:48;1.70;;;1.60;;
19301;SDS011;9785;59.362;12.152;2024-03-06T12:20:18;1.70;;;1.60;;
19301;SDS011;9785;59.362;12.152;2024-03-06T12:22:50;1.70;;;1.60;;
19301;SDS011;9785;59.362;12.152;2024-03-06T12:25:18;1.90;;;1.80;;
19301;SDS011;9785;59.362;12.152;2024-03-06T12:27:48;1.67;;;1.57;;
19301;SDS011;9785;59.362;12.152;2024-03-06T12:30:17;2.77;;;1.80;;
19301;SDS011;9785;59.362;12.152;2024-03-06T12:32:55;1.80;;;1.70;;
19301;SDS011;9785;59.362;12.152;2024-03-06T12:35:24;2.40;;;1.70;;
19301;SDS011;9785;59.362;12.152;2024-03-06T12:37:55;1.73;;;1.63;;
19301;SDS011;9785;59.362;12.152;2024-03-06T12:40:23;2.73;;;1.70;;
19301;SDS011;9785;59.362;12.152;2024-03-06T12:42:54;2.47;;;1.70;;
19301;SDS011;9785;59.362;12.152;2024-03-06T12:45:22;1.80;;;1.57;;
19301;SDS011;9785;59.362;12.152;2024-03-06T12:47:51;1.57;;;1.47;;
19301;SDS011;9785;59.362;12.152;2024-03-06T12:50:20;1.60;;;1.60;;
19301;SDS011;9785;59.362;12.152;2024-03-06T12:52:50;2.53;;;1.73;;
19301;SDS011;9785;59.362;12.152;2024-03-06T12:55:20;1.53;;;1.53;;
19301;SDS011;9785;59.362;12.152;2024-03-06T12:57:48;1.70;;;1.63;;
19301;SDS011;9785;59.362;12.152;2024-03-06T13:00:17;3.07;;;1.73;;
19301;SDS011;9785;59.362;12.152;2024-03-06T13:02:46;2.47;;;1.70;;
19301;SDS011;9785;59.362;12.152;2024-03-06T13:05:14;2.40;;;1.90;;
19301;SDS011;9785;59.362;12.152;2024-03-06T13:07:43;2.30;;;1.60;;
19301;SDS011;9785;59.362;12.152;2024-03-06T13:10:12;1.70;;;1.60;;
19301;SDS011;9785;59.362;12.152;2024-03-06T13:12:42;1.80;;;1.70;;
19301;SDS011;9785;59.362;12.152;2024-03-06T13:15:10;1.70;;;1.60;;
19301;SDS011;9785;59.362;12.152;2024-03-06T13:17:39;3.43;;;1.73;;
19301;SDS011;9785;59.362;12.152;2024-03-06T13:20:07;1.67;;;1.57;;
19301;SDS011;9785;59.362;12.152;2024-03-06T13:22:38;2.50;;;1.70;;
19301;SDS011;9785;59.362;12.152;2024-03-06T13:25:07;3.50;;;2.20;;
19301;SDS011;9785;59.362;12.152;2024-03-06T13:27:36;1.53;;;1.50;;
19301;SDS011;9785;59.362;12.152;2024-03-06T13:30:07;1.83;;;1.73;;
19301;SDS011;9785;59.362;12.152;2024-03-06T13:32:35;1.77;;;1.70;;
19301;SDS011;9785;59.362;12.152;2024-03-06T13:35:04;1.87;;;1.53;;
19301;SDS011;9785;59.362;12.152;2024-03-06T13:37:36;1.83;;;1.73;;
19301;SDS011;9785;59.362;12.152;2024-03-06T13:40:05;1.80;;;1.70;;
19301;SDS011;9785;59.362;12.152;2024-03-06T13:42:35;1.60;;;1.60;;
19301;SDS011;9785;59.362;12.152;2024-03-06T13:45:03;2.83;;;1.67;;
19301;SDS011;9785;59.362;12.152;2024-03-06T13:47:39;1.67;;;1.57;;
19301;SDS011;9785;59.362;12.152;2024-03-06T13:50:09;2.00;;;1.90;;
19301;SDS011;9785;59.362;12.152;2024-03-06T13:52:38;1.80;;;1.70;;
19301;SDS011;9785;59.362;12.152;2024-03-06T13:55:07;1.80;;;1.70;;
19301;SDS011;9785;59.362;12.152;2024-03-06T13:57:36;1.80;;;1.70;;
19301;SDS011;9785;59.362;12.152;2024-03-06T14:00:05;1.80;;;1.70;;
19301;SDS011;9785;59.362;12.152;2024-03-06T14:02:40;1.80;;;1.60;;
19301;SDS011;9785;59.362;12.152;2024-03-06T14:05:08;2.10;;;2.00;;
19301;SDS011;9785;59.362;12.152;2024-03-06T14:07:37;2.00;;;1.90;;
19301;SDS011;9785;59.362;12.152;2024-03-06T14:10:07;2.40;;;2.20;;
19301;SDS011;9785;59.362;12.152;2024-03-06T14:12:36;1.90;;;1.80;;
19301;SDS011;9785;59.362;12.152;2024-03-06T14:15:05;2.27;;;2.00;;
19301;SDS011;9785;59.362;12.152;2024-03-06T14:17:40;3.30;;;2.00;;
19301;SDS011;9785;59.362;12.152;2024-03-06T14:20:10;2.17;;;2.07;;
19301;SDS011;9785;59.362;12.152;2024-03-06T14:22:39;2.43;;;1.70;;
19301;SDS011;9785;59.362;12.152;2024-03-06T14:25:08;1.90;;;1.80;;
19301;SDS011;9785;59.362;12.152;2024-03-06T14:27:37;1.70;;;1.60;;
19301;SDS011;9785;59.362;12.152;2024-03-06T14:30:06;1.87;;;1.77;;
19301;SDS011;9785;59.362;12.152;2024-03-06T14:32:35;1.90;;;1.80;;
19301;SDS011;9785;59.362;12.152;2024-03-06T14:35:06;3.00;;;2.10;;
19301;SDS011;9785;59.362;12.152;2024-03-06T14:37:34;1.80;;;1.70;;
19301;SDS011;9785;59.362;12.152;2024-03-06T14:40:05;1.80;;;1.70;;
19301;SDS011;9785;59.362;12.152;2024-03-06T14:42:35;1.87;;;1.77;;
19301;SDS011;9785;59.362;12.152;2024-03-06T14:45:04;1.67;;;1.67;;
19301;SDS011;9785;59.362;12.152;2024-03-06T14:47:33;1.73;;;1.63;;
19301;SDS011;9785;59.362;12.152;2024-03-06T14:50:02;2.13;;;2.03;;
19301;SDS011;9785;59.362;12.152;2024-03-06T14:52:33;2.10;;;2.00;;
19301;SDS011;9785;59.362;12.152;2024-03-06T14:55:02;1.90;;;1.80;;
19301;SDS011;9785;59.362;12.152;2024-03-06T14:57:30;1.97;;;1.87;;
19301;SDS011;9785;59.362;12.152;2024-03-06T14:59:59;1.77;;;1.60;;
19301;SDS011;9785;59.362;12.152;2024-03-06T15:02:28;1.83;;;1.73;;
19301;SDS011;9785;59.362;12.152;2024-03-06T15:04:56;3.60;;;1.87;;
19301;SDS011;9785;59.362;12.152;2024-03-06T15:07:25;1.90;;;1.80;;
19301;SDS011;9785;59.362;12.152;2024-03-06T15:09:55;3.03;;;2.10;;